sensor_id;sensor_type;location;lat;lon;timestamp;P1;durP1;ratioP1;P2;durP2;ratioP2
36009;SDS011;22076;52.182;5.404;2023-03-23T00:00:05;14.23;;;7.60;;
36009;SDS011;22076;52.182;5.404;2023-03-23T00:02:33;13.52;;;7.57;;
36009;SDS011;22076;52.182;5.404;2023-03-23T00:05:03;16.52;;;8.40;;
36009;SDS011;22076;52.182;5.404;2023-03-23T00:07:31;11.52;;;8.00;;
36009;SDS011;22076;52.182;5.404;2023-03-23T00:10:00;17.05;;;8.75;;
36009;SDS011;22076;52.182;5.404;2023-03-23T00:12:28;14.32;;;7.80;;
36009;SDS011;22076;52.182;5.404;2023-03-23T00:14:58;15.80;;;7.50;;
36009;SDS011;22076;52.182;5.404;2023-03-23T00:17:25;13.20;;;6.85;;
36009;SDS011;22076;52.182;5.404;2023-03-23T00:19:52;11.35;;;6.93;;
36009;SDS011;22076;52.182;5.404;2023-03-23T00:22:19;13.90;;;6.63;;
36009;SDS011;22076;52.182;5.404;2023-03-23T00:24:46;12.00;;;7.38;;
36009;SDS011;22076;52.182;5.404;2023-03-23T00:27:16;11.35;;;6.68;;
36009;SDS011;22076;52.182;5.404;2023-03-23T00:29:43;13.88;;;7.07;;
36009;SDS011;22076;52.182;5.404;2023-03-23T00:32:11;15.98;;;7.90;;
36009;SDS011;22076;52.182;5.404;2023-03-23T00:34:39;13.10;;;6.28;;
36009;SDS011;22076;52.182;5.404;2023-03-23T00:37:08;13.55;;;6.82;;
36009;SDS011;22076;52.182;5.404;2023-03-23T00:39:35;13.88;;;7.95;;
36009;SDS011;22076;52.182;5.404;2023-03-23T00:42:04;19.55;;;7.55;;
36009;SDS011;22076;52.182;5.404;2023-03-23T00:44:32;15.95;;;6.45;;
36009;SDS011;22076;52.182;5.404;2023-03-23T00:47:01;10.60;;;5.75;;
36009;SDS011;22076;52.182;5.404;2023-03-23T00:49:28;11.85;;;6.72;;
36009;SDS011;22076;52.182;5.404;2023-03-23T00:51:55;11.98;;;6.25;;
36009;SDS011;22076;52.182;5.404;2023-03-23T00:54:24;12.82;;;5.68;;
36009;SDS011;22076;52.182;5.404;2023-03-23T00:56:51;12.73;;;6.55;;
36009;SDS011;22076;52.182;5.404;2023-03-23T00:59:18;9.45;;;6.32;;
36009;SDS011;22076;52.182;5.404;2023-03-23T01:01:47;8.35;;;5.10;;
36009;SDS011;22076;52.182;5.404;2023-03-23T01:04:13;12.90;;;5.65;;
36009;SDS011;22076;52.182;5.404;2023-03-23T01:06:41;12.48;;;5.22;;
36009;SDS011;22076;52.182;5.404;2023-03-23T01:09:08;10.43;;;5.95;;
36009;SDS011;22076;52.182;5.404;2023-03-23T01:11:36;9.93;;;5.07;;
36009;SDS011;22076;52.182;5.404;2023-03-23T01:14:03;9.25;;;5.55;;
36009;SDS011;22076;52.182;5.404;2023-03-23T01:16:30;16.70;;;5.35;;
36009;SDS011;22076;52.182;5.404;2023-03-23T01:18:58;13.50;;;5.70;;
36009;SDS011;22076;52.182;5.404;2023-03-23T01:21:25;11.80;;;4.72;;
36009;SDS011;22076;52.182;5.404;2023-03-23T01:23:51;13.43;;;5.40;;
36009;SDS011;22076;52.182;5.404;2023-03-23T01:26:19;11.82;;;5.32;;
36009;SDS011;22076;52.182;5.404;2023-03-23T01:28:47;8.13;;;4.78;;
36009;SDS011;22076;52.182;5.404;2023-03-23T01:31:15;8.45;;;4.53;;
36009;SDS011;22076;52.182;5.404;2023-03-23T01:33:43;7.90;;;5.05;;
36009;SDS011;22076;52.182;5.404;2023-03-23T01:36:11;7.50;;;5.00;;
36009;SDS011;22076;52.182;5.404;2023-03-23T01:38:40;11.50;;;5.57;;
36009;SDS011;22076;52.182;5.404;2023-03-23T01:41:07;11.60;;;5.30;;
36009;SDS011;22076;52.182;5.404;2023-03-23T01:43:34;12.52;;;5.00;;
36009;SDS011;22076;52.182;5.404;2023-03-23T01:46:01;10.25;;;5.03;;
36009;SDS011;22076;52.182;5.404;2023-03-23T01:48:27;8.07;;;4.25;;
36009;SDS011;22076;52.182;5.404;2023-03-23T01:50:57;7.53;;;4.72;;
36009;SDS011;22076;52.182;5.404;2023-03-23T01:53:30;9.48;;;4.65;;
36009;SDS011;22076;52.182;5.404;2023-03-23T01:58:27;8.95;;;4.28;;
36009;SDS011;22076;52.182;5.404;2023-03-23T02:00:54;11.77;;;4.25;;
36009;SDS011;22076;52.182;5.404;2023-03-23T02:03:24;12.02;;;4.18;;
36009;SDS011;22076;52.182;5.404;2023-03-23T02:05:51;8.20;;;4.50;;
36009;SDS011;22076;52.182;5.404;2023-03-23T02:08:18;7.97;;;4.20;;
36009;SDS011;22076;52.182;5.404;2023-03-23T02:10:46;9.02;;;4.93;;
36009;SDS011;22076;52.182;5.404;2023-03-23T02:13:13;10.93;;;5.65;;
36009;SDS011;22076;52.182;5.404;2023-03-23T02:15:43;8.65;;;4.53;;
36009;SDS011;22076;52.182;5.404;2023-03-23T02:18:16;6.00;;;4.90;;
36009;SDS011;22076;52.182;5.404;2023-03-23T02:23:57;8.60;;;4.47;;
36009;SDS011;22076;52.182;5.404;2023-03-23T02:26:40;8.80;;;4.53;;
36009;SDS011;22076;52.182;5.404;2023-03-23T02:35:06;10.32;;;5.20;;
36009;SDS011;22076;52.182;5.404;2023-03-23T02:37:36;5.50;;;4.05;;
36009;SDS011;22076;52.182;5.404;2023-03-23T02:40:04;9.98;;;4.93;;
36009;SDS011;22076;52.182;5.404;2023-03-23T02:42:36;8.70;;;4.88;;
36009;SDS011;22076;52.182;5.404;2023-03-23T02:45:05;6.03;;;4.28;;
36009;SDS011;22076;52.182;5.404;2023-03-23T02:47:34;8.27;;;4.78;;
36009;SDS011;22076;52.182;5.404;2023-03-23T02:50:03;8.00;;;4.70;;
36009;SDS011;22076;52.182;5.404;2023-03-23T02:55:01;9.68;;;4.53;;
36009;SDS011;22076;52.182;5.404;2023-03-23T02:57:28;8.43;;;4.65;;
36009;SDS011;22076;52.182;5.404;2023-03-23T02:59:55;11.65;;;4.95;;
36009;SDS011;22076;52.182;5.404;2023-03-23T03:02:22;8.60;;;4.88;;
36009;SDS011;22076;52.182;5.404;2023-03-23T03:04:52;6.88;;;4.07;;
36009;SDS011;22076;52.182;5.404;2023-03-23T03:07:28;9.27;;;4.85;;
36009;SDS011;22076;52.182;5.404;2023-03-23T03:10:01;8.40;;;4.70;;
36009;SDS011;22076;52.182;5.404;2023-03-23T03:12:32;11.23;;;5.63;;
36009;SDS011;22076;52.182;5.404;2023-03-23T03:15:06;7.80;;;4.35;;
36009;SDS011;22076;52.182;5.404;2023-03-23T03:17:38;9.10;;;4.30;;
36009;SDS011;22076;52.182;5.404;2023-03-23T03:20:11;7.85;;;4.63;;
36009;SDS011;22076;52.182;5.404;2023-03-23T03:22:41;9.35;;;4.78;;
36009;SDS011;22076;52.182;5.404;2023-03-23T03:25:12;6.15;;;4.03;;
36009;SDS011;22076;52.182;5.404;2023-03-23T03:27:40;9.70;;;4.30;;
36009;SDS011;22076;52.182;5.404;2023-03-23T03:30:09;9.43;;;4.22;;
36009;SDS011;22076;52.182;5.404;2023-03-23T03:32:41;6.85;;;3.63;;
36009;SDS011;22076;52.182;5.404;2023-03-23T03:35:11;11.85;;;3.80;;
36009;SDS011;22076;52.182;5.404;2023-03-23T03:37:40;7.80;;;3.25;;
36009;SDS011;22076;52.182;5.404;2023-03-23T03:40:08;9.93;;;3.70;;
36009;SDS011;22076;52.182;5.404;2023-03-23T03:42:37;9.10;;;3.50;;
36009;SDS011;22076;52.182;5.404;2023-03-23T03:45:04;10.00;;;3.95;;
36009;SDS011;22076;52.182;5.404;2023-03-23T03:47:32;9.63;;;3.67;;
36009;SDS011;22076;52.182;5.404;2023-03-23T03:49:58;5.60;;;2.95;;
36009;SDS011;22076;52.182;5.404;2023-03-23T03:52:25;9.40;;;3.38;;
36009;SDS011;22076;52.182;5.404;2023-03-23T03:54:53;7.85;;;3.60;;
36009;SDS011;22076;52.182;5.404;2023-03-23T03:57:20;6.53;;;3.38;;
36009;SDS011;22076;52.182;5.404;2023-03-23T03:59:47;8.32;;;3.13;;
36009;SDS011;22076;52.182;5.404;2023-03-23T04:02:16;9.70;;;2.90;;
36009;SDS011;22076;52.182;5.404;2023-03-23T04:04:45;9.07;;;3.15;;
36009;SDS011;22076;52.182;5.404;2023-03-23T04:07:12;8.98;;;2.92;;
36009;SDS011;22076;52.182;5.404;2023-03-23T04:09:41;9.38;;;3.30;;
36009;SDS011;22076;52.182;5.404;2023-03-23T04:12:09;6.20;;;2.70;;
36009;SDS011;22076;52.182;5.404;2023-03-23T04:14:36;10.10;;;2.90;;
36009;SDS011;22076;52.182;5.404;2023-03-23T04:17:03;6.88;;;2.95;;
36009;SDS011;22076;52.182;5.404;2023-03-23T04:19:29;8.10;;;2.60;;
36009;SDS011;22076;52.182;5.404;2023-03-23T04:21:57;3.20;;;2.33;;
36009;SDS011;22076;52.182;5.404;2023-03-23T04:24:24;6.93;;;2.72;;
36009;SDS011;22076;52.182;5.404;2023-03-23T04:26:53;8.18;;;2.75;;
36009;SDS011;22076;52.182;5.404;2023-03-23T04:29:22;8.40;;;2.80;;
36009;SDS011;22076;52.182;5.404;2023-03-23T04:31:48;7.43;;;2.58;;
36009;SDS011;22076;52.182;5.404;2023-03-23T04:34:16;8.50;;;2.72;;
36009;SDS011;22076;52.182;5.404;2023-03-23T04:36:43;7.03;;;2.50;;
36009;SDS011;22076;52.182;5.404;2023-03-23T04:39:11;7.25;;;2.70;;
36009;SDS011;22076;52.182;5.404;2023-03-23T04:41:38;8.82;;;3.20;;
36009;SDS011;22076;52.182;5.404;2023-03-23T04:44:06;6.05;;;2.30;;
36009;SDS011;22076;52.182;5.404;2023-03-23T04:46:34;7.68;;;2.60;;
36009;SDS011;22076;52.182;5.404;2023-03-23T04:49:01;6.10;;;2.28;;
36009;SDS011;22076;52.182;5.404;2023-03-23T04:51:28;5.18;;;2.05;;
36009;SDS011;22076;52.182;5.404;2023-03-23T04:53:56;7.03;;;2.10;;
36009;SDS011;22076;52.182;5.404;2023-03-23T04:56:23;6.65;;;1.90;;
36009;SDS011;22076;52.182;5.404;2023-03-23T04:58:50;5.45;;;2.10;;
36009;SDS011;22076;52.182;5.404;2023-03-23T05:01:16;9.68;;;2.53;;
36009;SDS011;22076;52.182;5.404;2023-03-23T05:03:45;5.18;;;1.77;;
36009;SDS011;22076;52.182;5.404;2023-03-23T05:06:11;13.40;;;2.75;;
36009;SDS011;22076;52.182;5.404;2023-03-23T05:08:38;9.68;;;2.20;;
36009;SDS011;22076;52.182;5.404;2023-03-23T05:11:05;6.00;;;2.22;;
36009;SDS011;22076;52.182;5.404;2023-03-23T05:13:35;6.72;;;2.83;;
36009;SDS011;22076;52.182;5.404;2023-03-23T05:16:05;9.10;;;2.58;;
36009;SDS011;22076;52.182;5.404;2023-03-23T05:18:32;6.03;;;2.25;;
36009;SDS011;22076;52.182;5.404;2023-03-23T05:21:00;12.32;;;2.90;;
36009;SDS011;22076;52.182;5.404;2023-03-23T05:23:27;6.82;;;2.08;;
36009;SDS011;22076;52.182;5.404;2023-03-23T05:25:56;11.88;;;2.45;;
36009;SDS011;22076;52.182;5.404;2023-03-23T05:28:25;9.90;;;2.42;;
36009;SDS011;22076;52.182;5.404;2023-03-23T05:30:52;7.88;;;2.28;;
36009;SDS011;22076;52.182;5.404;2023-03-23T05:33:21;11.43;;;2.75;;
36009;SDS011;22076;52.182;5.404;2023-03-23T05:35:47;10.30;;;2.78;;
36009;SDS011;22076;52.182;5.404;2023-03-23T05:38:19;24.77;;;2.88;;
36009;SDS011;22076;52.182;5.404;2023-03-23T05:40:47;11.45;;;1.77;;
36009;SDS011;22076;52.182;5.404;2023-03-23T05:43:15;9.32;;;2.28;;
36009;SDS011;22076;52.182;5.404;2023-03-23T05:45:41;12.15;;;2.80;;
36009;SDS011;22076;52.182;5.404;2023-03-23T05:48:08;11.98;;;2.75;;
36009;SDS011;22076;52.182;5.404;2023-03-23T05:50:34;10.63;;;2.38;;
36009;SDS011;22076;52.182;5.404;2023-03-23T05:53:01;9.00;;;1.80;;
36009;SDS011;22076;52.182;5.404;2023-03-23T05:55:30;9.30;;;2.13;;
36009;SDS011;22076;52.182;5.404;2023-03-23T05:58:00;10.40;;;2.83;;
36009;SDS011;22076;52.182;5.404;2023-03-23T06:00:26;6.78;;;2.10;;
36009;SDS011;22076;52.182;5.404;2023-03-23T06:02:55;14.75;;;2.78;;
36009;SDS011;22076;52.182;5.404;2023-03-23T06:05:24;23.02;;;4.32;;
36009;SDS011;22076;52.182;5.404;2023-03-23T06:07:51;14.10;;;3.10;;
36009;SDS011;22076;52.182;5.404;2023-03-23T06:10:22;13.07;;;3.67;;
36009;SDS011;22076;52.182;5.404;2023-03-23T06:12:56;13.23;;;3.33;;
36009;SDS011;22076;52.182;5.404;2023-03-23T06:15:23;8.48;;;2.75;;
36009;SDS011;22076;52.182;5.404;2023-03-23T06:17:54;9.48;;;2.95;;
36009;SDS011;22076;52.182;5.404;2023-03-23T06:20:21;7.70;;;2.47;;
36009;SDS011;22076;52.182;5.404;2023-03-23T06:22:50;9.00;;;2.03;;
36009;SDS011;22076;52.182;5.404;2023-03-23T06:25:17;6.75;;;2.70;;
36009;SDS011;22076;52.182;5.404;2023-03-23T06:27:44;10.10;;;2.83;;
36009;SDS011;22076;52.182;5.404;2023-03-23T06:30:13;10.50;;;2.40;;
36009;SDS011;22076;52.182;5.404;2023-03-23T06:32:41;14.90;;;3.38;;
36009;SDS011;22076;52.182;5.404;2023-03-23T06:35:08;13.52;;;3.92;;
36009;SDS011;22076;52.182;5.404;2023-03-23T06:37:38;9.98;;;2.80;;
36009;SDS011;22076;52.182;5.404;2023-03-23T06:40:05;9.68;;;2.92;;
36009;SDS011;22076;52.182;5.404;2023-03-23T06:42:35;7.80;;;2.25;;
36009;SDS011;22076;52.182;5.404;2023-03-23T06:45:02;9.02;;;3.17;;
36009;SDS011;22076;52.182;5.404;2023-03-23T06:47:30;10.25;;;2.70;;
36009;SDS011;22076;52.182;5.404;2023-03-23T06:49:57;12.85;;;3.60;;
36009;SDS011;22076;52.182;5.404;2023-03-23T06:52:24;9.50;;;2.58;;
36009;SDS011;22076;52.182;5.404;2023-03-23T06:54:52;13.27;;;3.30;;
36009;SDS011;22076;52.182;5.404;2023-03-23T06:57:19;12.98;;;2.85;;
36009;SDS011;22076;52.182;5.404;2023-03-23T06:59:47;11.43;;;3.60;;
36009;SDS011;22076;52.182;5.404;2023-03-23T07:02:14;14.25;;;3.97;;
36009;SDS011;22076;52.182;5.404;2023-03-23T07:04:42;8.75;;;3.20;;
36009;SDS011;22076;52.182;5.404;2023-03-23T07:07:09;13.90;;;3.60;;
36009;SDS011;22076;52.182;5.404;2023-03-23T07:09:43;14.60;;;3.53;;
36009;SDS011;22076;52.182;5.404;2023-03-23T07:12:10;17.33;;;3.17;;
36009;SDS011;22076;52.182;5.404;2023-03-23T07:14:36;14.05;;;3.85;;
36009;SDS011;22076;52.182;5.404;2023-03-23T07:17:03;12.10;;;3.00;;
36009;SDS011;22076;52.182;5.404;2023-03-23T07:19:31;12.80;;;2.60;;
36009;SDS011;22076;52.182;5.404;2023-03-23T07:22:06;13.27;;;2.63;;
36009;SDS011;22076;52.182;5.404;2023-03-23T07:24:33;9.05;;;2.92;;
36009;SDS011;22076;52.182;5.404;2023-03-23T07:27:00;9.63;;;3.28;;
36009;SDS011;22076;52.182;5.404;2023-03-23T07:29:28;9.20;;;2.80;;
36009;SDS011;22076;52.182;5.404;2023-03-23T07:31:56;16.58;;;3.28;;
36009;SDS011;22076;52.182;5.404;2023-03-23T07:34:22;12.35;;;2.70;;
36009;SDS011;22076;52.182;5.404;2023-03-23T07:36:49;10.73;;;2.58;;
36009;SDS011;22076;52.182;5.404;2023-03-23T07:39:20;13.02;;;2.85;;
36009;SDS011;22076;52.182;5.404;2023-03-23T07:41:48;12.02;;;3.85;;
36009;SDS011;22076;52.182;5.404;2023-03-23T07:44:15;10.80;;;3.42;;
36009;SDS011;22076;52.182;5.404;2023-03-23T07:46:42;11.88;;;2.75;;
36009;SDS011;22076;52.182;5.404;2023-03-23T07:49:08;8.80;;;3.15;;
36009;SDS011;22076;52.182;5.404;2023-03-23T07:51:38;12.90;;;3.63;;
36009;SDS011;22076;52.182;5.404;2023-03-23T07:54:04;10.00;;;3.17;;
36009;SDS011;22076;52.182;5.404;2023-03-23T07:56:33;12.07;;;3.00;;
36009;SDS011;22076;52.182;5.404;2023-03-23T07:59:02;8.98;;;2.53;;
36009;SDS011;22076;52.182;5.404;2023-03-23T08:01:30;14.63;;;3.25;;
36009;SDS011;22076;52.182;5.404;2023-03-23T08:03:57;13.02;;;3.20;;
36009;SDS011;22076;52.182;5.404;2023-03-23T08:06:24;16.15;;;3.92;;
36009;SDS011;22076;52.182;5.404;2023-03-23T08:08:51;15.25;;;3.65;;
36009;SDS011;22076;52.182;5.404;2023-03-23T08:11:18;10.30;;;3.25;;
36009;SDS011;22076;52.182;5.404;2023-03-23T08:13:47;11.65;;;3.20;;
36009;SDS011;22076;52.182;5.404;2023-03-23T08:16:13;12.27;;;3.40;;
36009;SDS011;22076;52.182;5.404;2023-03-23T08:18:40;12.57;;;2.60;;
36009;SDS011;22076;52.182;5.404;2023-03-23T08:21:07;11.65;;;3.20;;
36009;SDS011;22076;52.182;5.404;2023-03-23T08:23:34;9.50;;;3.55;;
36009;SDS011;22076;52.182;5.404;2023-03-23T08:26:02;12.70;;;3.45;;
36009;SDS011;22076;52.182;5.404;2023-03-23T08:28:31;11.77;;;3.22;;
36009;SDS011;22076;52.182;5.404;2023-03-23T08:31:05;11.93;;;3.58;;
36009;SDS011;22076;52.182;5.404;2023-03-23T08:33:36;14.90;;;3.33;;
36009;SDS011;22076;52.182;5.404;2023-03-23T08:36:02;13.20;;;3.30;;
36009;SDS011;22076;52.182;5.404;2023-03-23T08:38:31;8.07;;;2.70;;
36009;SDS011;22076;52.182;5.404;2023-03-23T08:40:59;12.50;;;3.63;;
36009;SDS011;22076;52.182;5.404;2023-03-23T08:43:26;12.93;;;3.60;;
36009;SDS011;22076;52.182;5.404;2023-03-23T08:45:53;12.30;;;4.13;;
36009;SDS011;22076;52.182;5.404;2023-03-23T08:48:21;6.20;;;2.92;;
36009;SDS011;22076;52.182;5.404;2023-03-23T08:50:48;9.32;;;3.33;;
36009;SDS011;22076;52.182;5.404;2023-03-23T08:53:19;7.25;;;3.10;;
36009;SDS011;22076;52.182;5.404;2023-03-23T08:55:46;13.68;;;4.00;;
36009;SDS011;22076;52.182;5.404;2023-03-23T08:58:13;15.98;;;3.80;;
36009;SDS011;22076;52.182;5.404;2023-03-23T09:00:42;17.35;;;3.97;;
36009;SDS011;22076;52.182;5.404;2023-03-23T09:03:10;12.30;;;3.50;;
36009;SDS011;22076;52.182;5.404;2023-03-23T09:05:39;9.43;;;2.55;;
36009;SDS011;22076;52.182;5.404;2023-03-23T09:08:11;8.18;;;3.90;;
36009;SDS011;22076;52.182;5.404;2023-03-23T09:10:38;18.50;;;3.88;;
36009;SDS011;22076;52.182;5.404;2023-03-23T09:13:05;12.85;;;2.97;;
36009;SDS011;22076;52.182;5.404;2023-03-23T09:15:32;11.40;;;3.13;;
36009;SDS011;22076;52.182;5.404;2023-03-23T09:17:59;13.88;;;3.42;;
36009;SDS011;22076;52.182;5.404;2023-03-23T09:20:26;10.45;;;3.58;;
36009;SDS011;22076;52.182;5.404;2023-03-23T09:22:55;13.18;;;3.92;;
36009;SDS011;22076;52.182;5.404;2023-03-23T09:25:24;10.70;;;3.42;;
36009;SDS011;22076;52.182;5.404;2023-03-23T09:27:52;12.60;;;3.47;;
36009;SDS011;22076;52.182;5.404;2023-03-23T09:30:21;12.85;;;3.35;;
36009;SDS011;22076;52.182;5.404;2023-03-23T09:32:49;16.77;;;3.95;;
36009;SDS011;22076;52.182;5.404;2023-03-23T09:35:15;16.08;;;3.95;;
36009;SDS011;22076;52.182;5.404;2023-03-23T09:37:47;12.18;;;3.28;;
36009;SDS011;22076;52.182;5.404;2023-03-23T09:40:17;14.57;;;3.85;;
36009;SDS011;22076;52.182;5.404;2023-03-23T09:42:52;11.82;;;3.55;;
36009;SDS011;22076;52.182;5.404;2023-03-23T09:45:25;13.20;;;3.65;;
36009;SDS011;22076;52.182;5.404;2023-03-23T09:48:03;13.40;;;3.33;;
36009;SDS011;22076;52.182;5.404;2023-03-23T09:50:54;13.63;;;3.25;;
36009;SDS011;22076;52.182;5.404;2023-03-23T09:53:27;18.20;;;3.47;;
36009;SDS011;22076;52.182;5.404;2023-03-23T09:56:01;11.80;;;2.67;;
36009;SDS011;22076;52.182;5.404;2023-03-23T09:58:30;12.48;;;3.17;;
36009;SDS011;22076;52.182;5.404;2023-03-23T10:00:59;15.02;;;2.83;;
36009;SDS011;22076;52.182;5.404;2023-03-23T10:03:30;14.80;;;3.03;;
36009;SDS011;22076;52.182;5.404;2023-03-23T10:05:59;14.15;;;2.55;;
36009;SDS011;22076;52.182;5.404;2023-03-23T10:08:26;11.90;;;3.00;;
36009;SDS011;22076;52.182;5.404;2023-03-23T10:10:58;15.60;;;3.60;;
36009;SDS011;22076;52.182;5.404;2023-03-23T10:13:34;14.38;;;2.85;;
36009;SDS011;22076;52.182;5.404;2023-03-23T10:16:17;11.45;;;2.63;;
36009;SDS011;22076;52.182;5.404;2023-03-23T10:18:47;9.73;;;3.05;;
36009;SDS011;22076;52.182;5.404;2023-03-23T10:21:19;9.57;;;2.33;;
36009;SDS011;22076;52.182;5.404;2023-03-23T10:23:50;11.93;;;2.72;;
36009;SDS011;22076;52.182;5.404;2023-03-23T10:26:25;20.95;;;3.75;;
36009;SDS011;22076;52.182;5.404;2023-03-23T10:28:57;18.75;;;3.10;;
36009;SDS011;22076;52.182;5.404;2023-03-23T10:31:28;13.35;;;2.83;;
36009;SDS011;22076;52.182;5.404;2023-03-23T10:33:59;14.98;;;3.28;;
36009;SDS011;22076;52.182;5.404;2023-03-23T10:36:29;14.45;;;2.60;;
36009;SDS011;22076;52.182;5.404;2023-03-23T10:38:59;16.80;;;3.88;;
36009;SDS011;22076;52.182;5.404;2023-03-23T10:41:30;21.20;;;2.90;;
36009;SDS011;22076;52.182;5.404;2023-03-23T10:43:56;10.85;;;3.00;;
36009;SDS011;22076;52.182;5.404;2023-03-23T10:46:31;10.07;;;2.55;;
36009;SDS011;22076;52.182;5.404;2023-03-23T10:49:02;10.95;;;2.65;;
36009;SDS011;22076;52.182;5.404;2023-03-23T10:51:34;10.20;;;2.17;;
36009;SDS011;22076;52.182;5.404;2023-03-23T10:54:03;13.98;;;3.08;;
36009;SDS011;22076;52.182;5.404;2023-03-23T10:56:36;11.25;;;2.63;;
36009;SDS011;22076;52.182;5.404;2023-03-23T11:01:42;10.35;;;2.83;;
36009;SDS011;22076;52.182;5.404;2023-03-23T11:04:11;12.40;;;2.65;;
36009;SDS011;22076;52.182;5.404;2023-03-23T11:06:42;14.27;;;3.05;;
36009;SDS011;22076;52.182;5.404;2023-03-23T11:09:10;11.15;;;3.50;;
36009;SDS011;22076;52.182;5.404;2023-03-23T11:11:40;17.52;;;3.13;;
36009;SDS011;22076;52.182;5.404;2023-03-23T11:14:14;8.70;;;3.03;;
36009;SDS011;22076;52.182;5.404;2023-03-23T11:16:43;17.40;;;2.90;;
36009;SDS011;22076;52.182;5.404;2023-03-23T11:19:11;12.30;;;2.83;;
36009;SDS011;22076;52.182;5.404;2023-03-23T11:21:39;11.07;;;2.78;;
36009;SDS011;22076;52.182;5.404;2023-03-23T11:24:07;12.93;;;2.75;;
36009;SDS011;22076;52.182;5.404;2023-03-23T11:26:34;10.50;;;2.30;;
36009;SDS011;22076;52.182;5.404;2023-03-23T11:29:04;12.07;;;2.83;;
36009;SDS011;22076;52.182;5.404;2023-03-23T11:31:36;13.00;;;2.42;;
36009;SDS011;22076;52.182;5.404;2023-03-23T11:34:05;10.82;;;2.92;;
36009;SDS011;22076;52.182;5.404;2023-03-23T11:36:37;18.98;;;2.95;;
36009;SDS011;22076;52.182;5.404;2023-03-23T11:39:18;13.73;;;2.90;;
36009;SDS011;22076;52.182;5.404;2023-03-23T11:41:46;11.27;;;2.67;;
36009;SDS011;22076;52.182;5.404;2023-03-23T11:44:14;16.30;;;2.88;;
36009;SDS011;22076;52.182;5.404;2023-03-23T11:46:44;7.47;;;2.55;;
36009;SDS011;22076;52.182;5.404;2023-03-23T11:49:18;15.93;;;3.13;;
36009;SDS011;22076;52.182;5.404;2023-03-23T11:51:49;13.32;;;2.50;;
36009;SDS011;22076;52.182;5.404;2023-03-23T11:54:24;11.60;;;2.83;;
36009;SDS011;22076;52.182;5.404;2023-03-23T11:56:55;8.25;;;2.20;;
36009;SDS011;22076;52.182;5.404;2023-03-23T11:59:27;9.00;;;2.08;;
36009;SDS011;22076;52.182;5.404;2023-03-23T12:02:00;8.45;;;2.90;;
36009;SDS011;22076;52.182;5.404;2023-03-23T12:04:39;9.43;;;2.30;;
36009;SDS011;22076;52.182;5.404;2023-03-23T12:07:14;6.50;;;2.33;;
36009;SDS011;22076;52.182;5.404;2023-03-23T12:09:47;8.85;;;2.83;;
36009;SDS011;22076;52.182;5.404;2023-03-23T12:12:19;10.73;;;3.13;;
36009;SDS011;22076;52.182;5.404;2023-03-23T12:14:53;6.57;;;2.20;;
36009;SDS011;22076;52.182;5.404;2023-03-23T12:17:28;12.30;;;3.08;;
36009;SDS011;22076;52.182;5.404;2023-03-23T12:20:03;11.95;;;3.17;;
36009;SDS011;22076;52.182;5.404;2023-03-23T12:22:46;14.63;;;2.70;;
36009;SDS011;22076;52.182;5.404;2023-03-23T12:25:39;12.48;;;3.13;;
36009;SDS011;22076;52.182;5.404;2023-03-23T12:28:15;13.80;;;3.08;;
36009;SDS011;22076;52.182;5.404;2023-03-23T12:30:49;14.55;;;3.00;;
36009;SDS011;22076;52.182;5.404;2023-03-23T12:33:25;15.95;;;2.88;;
36009;SDS011;22076;52.182;5.404;2023-03-23T12:36:01;10.20;;;2.50;;
36009;SDS011;22076;52.182;5.404;2023-03-23T12:38:53;17.38;;;3.60;;
36009;SDS011;22076;52.182;5.404;2023-03-23T12:41:29;13.27;;;3.65;;
36009;SDS011;22076;52.182;5.404;2023-03-23T12:44:02;15.17;;;3.20;;
36009;SDS011;22076;52.182;5.404;2023-03-23T12:49:33;14.68;;;3.13;;
36009;SDS011;22076;52.182;5.404;2023-03-23T12:52:02;9.25;;;2.97;;
36009;SDS011;22076;52.182;5.404;2023-03-23T12:54:37;13.70;;;3.03;;
36009;SDS011;22076;52.182;5.404;2023-03-23T12:57:07;15.98;;;3.72;;
36009;SDS011;22076;52.182;5.404;2023-03-23T12:59:39;10.75;;;2.60;;
36009;SDS011;22076;52.182;5.404;2023-03-23T13:02:14;13.55;;;3.05;;
36009;SDS011;22076;52.182;5.404;2023-03-23T13:04:45;12.13;;;2.83;;
36009;SDS011;22076;52.182;5.404;2023-03-23T13:07:16;10.95;;;2.65;;
36009;SDS011;22076;52.182;5.404;2023-03-23T13:09:48;16.10;;;3.05;;
36009;SDS011;22076;52.182;5.404;2023-03-23T13:12:16;7.93;;;2.50;;
36009;SDS011;22076;52.182;5.404;2023-03-23T13:14:45;11.82;;;3.30;;
36009;SDS011;22076;52.182;5.404;2023-03-23T13:17:22;10.90;;;2.73;;
36009;SDS011;22076;52.182;5.404;2023-03-23T13:19:59;10.52;;;2.67;;
36009;SDS011;22076;52.182;5.404;2023-03-23T13:22:32;16.80;;;2.78;;
36009;SDS011;22076;52.182;5.404;2023-03-23T13:25:06;11.65;;;2.45;;
36009;SDS011;22076;52.182;5.404;2023-03-23T13:27:35;10.80;;;2.38;;
36009;SDS011;22076;52.182;5.404;2023-03-23T13:30:02;9.48;;;2.63;;
36009;SDS011;22076;52.182;5.404;2023-03-23T13:32:32;9.35;;;2.60;;
36009;SDS011;22076;52.182;5.404;2023-03-23T13:35:00;7.75;;;2.25;;
36009;SDS011;22076;52.182;5.404;2023-03-23T13:37:27;10.85;;;2.35;;
36009;SDS011;22076;52.182;5.404;2023-03-23T13:39:54;10.18;;;2.60;;
36009;SDS011;22076;52.182;5.404;2023-03-23T13:42:26;17.50;;;2.78;;
36009;SDS011;22076;52.182;5.404;2023-03-23T13:45:17;12.23;;;2.90;;
36009;SDS011;22076;52.182;5.404;2023-03-23T13:48:03;8.65;;;2.47;;
36009;SDS011;22076;52.182;5.404;2023-03-23T13:50:43;14.98;;;2.63;;
36009;SDS011;22076;52.182;5.404;2023-03-23T13:53:14;12.05;;;2.63;;
36009;SDS011;22076;52.182;5.404;2023-03-23T13:55:48;10.65;;;2.90;;
36009;SDS011;22076;52.182;5.404;2023-03-23T13:58:23;13.02;;;2.13;;
36009;SDS011;22076;52.182;5.404;2023-03-23T14:01:01;11.13;;;2.00;;
36009;SDS011;22076;52.182;5.404;2023-03-23T14:03:38;17.77;;;2.70;;
36009;SDS011;22076;52.182;5.404;2023-03-23T14:06:06;9.98;;;2.30;;
36009;SDS011;22076;52.182;5.404;2023-03-23T14:08:38;12.48;;;2.13;;
36009;SDS011;22076;52.182;5.404;2023-03-23T14:11:11;9.80;;;2.47;;
36009;SDS011;22076;52.182;5.404;2023-03-23T14:13:41;16.60;;;2.75;;
36009;SDS011;22076;52.182;5.404;2023-03-23T14:18:49;8.75;;;2.00;;
36009;SDS011;22076;52.182;5.404;2023-03-23T14:21:21;12.73;;;2.22;;
36009;SDS011;22076;52.182;5.404;2023-03-23T14:23:52;5.63;;;1.80;;
36009;SDS011;22076;52.182;5.404;2023-03-23T14:26:21;9.90;;;2.20;;
36009;SDS011;22076;52.182;5.404;2023-03-23T14:28:49;6.40;;;1.88;;
36009;SDS011;22076;52.182;5.404;2023-03-23T14:31:18;8.90;;;2.53;;
36009;SDS011;22076;52.182;5.404;2023-03-23T14:33:48;11.50;;;2.17;;
36009;SDS011;22076;52.182;5.404;2023-03-23T14:36:19;6.75;;;2.58;;
36009;SDS011;22076;52.182;5.404;2023-03-23T14:38:46;7.07;;;2.15;;
36009;SDS011;22076;52.182;5.404;2023-03-23T14:41:24;10.70;;;2.80;;
36009;SDS011;22076;52.182;5.404;2023-03-23T14:44:03;12.07;;;3.13;;
36009;SDS011;22076;52.182;5.404;2023-03-23T14:46:32;9.05;;;2.58;;
36009;SDS011;22076;52.182;5.404;2023-03-23T14:49:00;14.00;;;3.70;;
36009;SDS011;22076;52.182;5.404;2023-03-23T14:51:46;7.35;;;2.40;;
36009;SDS011;22076;52.182;5.404;2023-03-23T14:54:26;9.23;;;2.88;;
36009;SDS011;22076;52.182;5.404;2023-03-23T14:57:10;10.35;;;3.33;;
36009;SDS011;22076;52.182;5.404;2023-03-23T14:59:41;8.40;;;2.08;;
36009;SDS011;22076;52.182;5.404;2023-03-23T15:02:17;11.45;;;3.00;;
36009;SDS011;22076;52.182;5.404;2023-03-23T15:04:55;17.17;;;3.28;;
36009;SDS011;22076;52.182;5.404;2023-03-23T15:07:24;9.38;;;2.92;;
36009;SDS011;22076;52.182;5.404;2023-03-23T15:12:36;10.38;;;2.50;;
36009;SDS011;22076;52.182;5.404;2023-03-23T15:15:19;10.00;;;2.67;;
36009;SDS011;22076;52.182;5.404;2023-03-23T15:17:47;9.60;;;2.78;;
36009;SDS011;22076;52.182;5.404;2023-03-23T15:20:21;10.90;;;2.42;;